Terminal Aerodrome Forecast
Issued by NWS Wilmington, OH

Current Version | Previous Version | Text Only | Print | Product List | Glossary Off
Versions: 1 2 3 4 5 6 7 8 9 10 11 12 13

000
FTUS41 KILN 151600 AAA
TAFILN
TAF AMD
KILN 151642Z 1517/1612 33015G24KT P6SM VCSH BKN040
     FM152100 32012G20KT P6SM BKN040
     FM160000 33008KT P6SM SCT040
     FM160300 VRB04KT P6SM SKC=

USA.gov is the U.S. government's official web portal to all federal, state and local government web resources and services.